createdAt,value
2017-11-26T00:00:55.225Z,2.87
2017-11-26T00:03:22.748Z,3.40
2017-11-26T00:05:50.596Z,2.58
2017-11-26T00:08:18.172Z,2.83
2017-11-26T00:10:45.712Z,3.67
2017-11-26T00:13:13.312Z,3.80
2017-11-26T00:15:40.824Z,2.67
2017-11-26T00:18:08.392Z,5.50
2017-11-26T00:20:36.054Z,3.53
2017-11-26T00:23:03.584Z,3.92
2017-11-26T00:25:31.095Z,3.90
2017-11-26T00:27:58.885Z,4.40
2017-11-26T00:30:26.454Z,4.18
2017-11-26T00:32:53.982Z,6.25
2017-11-26T00:35:21.714Z,5.45
2017-11-26T00:37:49.273Z,4.65
2017-11-26T00:40:16.797Z,5.55
2017-11-26T00:42:44.345Z,4.40
2017-11-26T00:45:11.856Z,4.47
2017-11-26T00:47:39.365Z,4.05
2017-11-26T00:50:06.915Z,5.18
2017-11-26T00:52:34.436Z,5.10
2017-11-26T00:55:01.960Z,4.20
2017-11-26T00:57:29.576Z,5.43
2017-11-26T00:59:57.102Z,3.92
2017-11-26T01:02:24.736Z,4.75
2017-11-26T01:04:52.281Z,4.15
2017-11-26T01:07:19.799Z,5.10
2017-11-26T01:09:47.312Z,4.43
2017-11-26T01:12:14.864Z,5.18
2017-11-26T01:14:42.380Z,4.80
2017-11-26T01:17:09.887Z,4.32
2017-11-26T01:19:37.778Z,4.20
2017-11-26T01:22:05.339Z,5.03
2017-11-26T01:24:32.848Z,4.75
2017-11-26T01:27:00.782Z,5.18
2017-11-26T01:29:28.321Z,4.35
2017-11-26T01:31:55.867Z,4.75
2017-11-26T01:34:23.525Z,4.53
2017-11-26T01:36:51.054Z,6.45
2017-11-26T01:39:18.582Z,5.25
2017-11-26T01:41:46.326Z,4.43
2017-11-26T01:44:13.884Z,4.22
2017-11-26T01:46:41.404Z,4.45
2017-11-26T01:49:09.040Z,4.32
2017-11-26T01:51:36.572Z,3.80
2017-11-26T01:54:04.119Z,3.62
2017-11-26T01:56:31.894Z,4.80
2017-11-26T01:58:59.404Z,4.85
2017-11-26T02:01:26.968Z,4.32
2017-11-26T02:03:59.127Z,4.05
2017-11-26T02:06:26.655Z,5.05
2017-11-26T02:08:54.182Z,3.65
2017-11-26T02:11:21.843Z,5.07
2017-11-26T02:13:49.356Z,5.05
2017-11-26T02:16:16.867Z,5.00
2017-11-26T02:18:44.739Z,3.50
2017-11-26T02:21:12.285Z,4.70
2017-11-26T02:23:39.844Z,4.57
2017-11-26T02:26:07.709Z,4.40
2017-11-26T02:28:35.278Z,3.50
2017-11-26T02:31:02.829Z,3.75
2017-11-26T02:33:42.575Z,2.90
2017-11-26T02:36:17.012Z,3.03
2017-11-26T02:38:44.868Z,3.30
2017-11-26T02:41:12.378Z,3.35
2017-11-26T02:43:39.977Z,2.45
2017-11-26T02:46:07.844Z,4.20
2017-11-26T02:48:35.348Z,3.15
2017-11-26T02:51:02.880Z,3.40
2017-11-26T02:53:30.422Z,3.55
2017-11-26T02:55:57.978Z,2.45
2017-11-26T02:58:25.478Z,3.33
2017-11-26T03:00:53.608Z,3.17
2017-11-26T03:03:21.119Z,3.17
2017-11-26T03:05:48.639Z,2.03
2017-11-26T03:08:16.196Z,2.55
2017-11-26T03:10:43.743Z,2.40
2017-11-26T03:13:11.250Z,2.60
2017-11-26T03:15:38.788Z,2.30
2017-11-26T03:18:06.317Z,2.90
2017-11-26T03:20:33.878Z,2.20
2017-11-26T03:23:01.614Z,3.03
2017-11-26T03:25:29.127Z,2.40
2017-11-26T03:27:56.638Z,2.75
2017-11-26T03:30:24.192Z,2.47
2017-11-26T03:32:51.703Z,2.92
2017-11-26T03:35:19.333Z,2.47
2017-11-26T03:37:47.071Z,2.33
2017-11-26T03:40:14.583Z,2.08
2017-11-26T03:42:42.092Z,2.55
2017-11-26T03:45:09.673Z,2.55
2017-11-26T03:47:37.183Z,1.67
2017-11-26T03:50:04.695Z,1.75
2017-11-26T03:52:32.452Z,2.10
2017-11-26T03:54:59.959Z,1.98
2017-11-26T03:57:27.484Z,2.10
2017-11-26T03:59:55.025Z,2.58
2017-11-26T04:02:22.535Z,2.78
2017-11-26T04:04:50.051Z,2.62
2017-11-26T04:07:17.826Z,1.95
2017-11-26T04:09:45.334Z,2.40
2017-11-26T04:12:12.848Z,1.90
2017-11-26T04:14:40.564Z,2.20
2017-11-26T04:17:08.089Z,2.03
2017-11-26T04:19:35.628Z,2.78
2017-11-26T04:22:03.255Z,2.70
2017-11-26T04:24:30.762Z,2.20
2017-11-26T04:26:58.279Z,2.00
2017-11-26T04:29:25.947Z,2.35
2017-11-26T04:31:53.499Z,1.85
2017-11-26T04:34:21.003Z,2.37
2017-11-26T04:36:48.567Z,1.85
2017-11-26T04:39:16.080Z,2.33
2017-11-26T04:41:43.620Z,1.80
2017-11-26T04:44:11.295Z,2.50
2017-11-26T04:46:38.854Z,2.28
2017-11-26T04:49:06.360Z,1.90
2017-11-26T04:51:33.915Z,2.00
2017-11-26T04:54:01.428Z,1.80
2017-11-26T04:56:28.986Z,2.50
2017-11-26T04:58:56.559Z,2.97
2017-11-26T05:01:24.066Z,2.35
2017-11-26T05:03:51.581Z,2.10
2017-11-26T05:06:19.411Z,2.37
2017-11-26T05:08:46.920Z,2.10
2017-11-26T05:11:14.445Z,2.53
2017-11-26T05:13:42.022Z,3.03
2017-11-26T05:16:09.564Z,2.30
2017-11-26T05:18:37.124Z,1.75
2017-11-26T05:21:04.677Z,1.98
2017-11-26T05:23:32.188Z,1.92
2017-11-26T05:25:59.700Z,2.15
2017-11-26T05:28:27.251Z,2.55
2017-11-26T05:30:54.766Z,2.10
2017-11-26T05:33:22.274Z,2.15
2017-11-26T05:35:49.832Z,1.58
2017-11-26T05:38:17.343Z,1.90
2017-11-26T05:40:44.854Z,2.17
2017-11-26T05:43:12.611Z,2.05
2017-11-26T05:45:40.137Z,2.37
2017-11-26T05:48:07.653Z,1.70
2017-11-26T05:50:35.755Z,2.42
2017-11-26T05:53:03.304Z,2.45
2017-11-26T05:55:30.860Z,2.47
2017-11-26T05:57:58.587Z,3.05
2017-11-26T06:00:26.095Z,2.58
2017-11-26T06:02:53.608Z,2.05
2017-11-26T06:05:21.767Z,3.00
2017-11-26T06:07:49.291Z,3.80
2017-11-26T06:10:16.800Z,2.72
2017-11-26T06:12:44.756Z,3.25
2017-11-26T06:15:12.313Z,3.22
2017-11-26T06:17:39.819Z,3.17
2017-11-26T06:20:07.532Z,3.15
2017-11-26T06:22:35.093Z,2.47
2017-11-26T06:25:02.608Z,3.20
2017-11-26T06:27:30.607Z,3.00
2017-11-26T06:29:58.116Z,2.47
2017-11-26T06:32:25.639Z,2.65
2017-11-26T06:34:53.238Z,4.00
2017-11-26T06:37:20.748Z,3.60
2017-11-26T06:39:48.416Z,3.22
2017-11-26T06:42:15.961Z,3.60
2017-11-26T06:44:43.489Z,2.85
2017-11-26T06:47:11.177Z,2.95
2017-11-26T06:49:38.872Z,3.10
2017-11-26T06:52:06.416Z,1.87
2017-11-26T06:54:33.920Z,2.25
2017-11-26T06:57:01.738Z,2.60
2017-11-26T06:59:29.323Z,3.20
2017-11-26T07:01:56.847Z,3.58
2017-11-26T07:04:24.517Z,2.85
2017-11-26T07:06:52.079Z,2.60
2017-11-26T07:09:19.636Z,2.50
2017-11-26T07:11:48.559Z,3.03
2017-11-26T07:14:16.495Z,3.15
2017-11-26T07:16:44.057Z,3.03
2017-11-26T07:19:11.824Z,3.17
2017-11-26T07:21:39.378Z,3.22
2017-11-26T07:24:06.892Z,2.80
2017-11-26T07:26:34.432Z,3.10
2017-11-26T07:29:01.945Z,3.55
2017-11-26T07:31:29.463Z,2.80
2017-11-26T07:33:57.172Z,3.28
2017-11-26T07:36:24.739Z,2.42
2017-11-26T07:38:52.247Z,3.33
2017-11-26T07:41:20.032Z,3.12
2017-11-26T07:43:47.548Z,2.97
2017-11-26T07:46:15.245Z,3.55
2017-11-26T07:48:42.835Z,3.35
2017-11-26T07:51:10.395Z,3.55
2017-11-26T07:53:37.953Z,4.15
2017-11-26T07:56:05.513Z,5.50
2017-11-26T07:58:33.037Z,4.68
2017-11-26T08:01:00.675Z,4.10
2017-11-26T08:03:28.483Z,4.07
2017-11-26T08:05:55.996Z,4.12
2017-11-26T08:08:23.515Z,3.50
2017-11-26T08:10:51.231Z,4.32
2017-11-26T08:13:18.753Z,3.20
2017-11-26T08:15:46.300Z,3.40
2017-11-26T08:18:13.855Z,3.30
2017-11-26T08:20:41.513Z,3.33
2017-11-26T08:23:09.020Z,3.62
2017-11-26T08:25:36.911Z,3.97
2017-11-26T08:28:04.420Z,4.05
2017-11-26T08:30:31.975Z,4.15
2017-11-26T08:32:59.540Z,3.50
2017-11-26T08:35:27.063Z,3.20
2017-11-26T08:37:54.603Z,2.80
2017-11-26T08:40:23.419Z,2.80
2017-11-26T08:42:50.986Z,3.50
2017-11-26T08:45:18.511Z,3.40
2017-11-26T08:47:46.410Z,3.17
2017-11-26T08:50:13.955Z,3.37
2017-11-26T08:52:41.471Z,2.85
2017-11-26T08:55:09.034Z,2.97
2017-11-26T08:57:36.566Z,2.30
2017-11-26T09:00:04.096Z,2.78
2017-11-26T09:02:31.658Z,2.28
2017-11-26T09:04:59.172Z,2.25
2017-11-26T09:07:30.631Z,2.17
2017-11-26T09:09:58.229Z,2.47
2017-11-26T09:12:25.767Z,2.58
2017-11-26T09:14:53.295Z,2.78
2017-11-26T09:17:20.846Z,2.10
2017-11-26T09:19:48.663Z,2.03
2017-11-26T09:22:16.405Z,2.60
2017-11-26T09:24:43.994Z,2.10
2017-11-26T09:27:12.570Z,2.97
2017-11-26T09:29:40.129Z,3.65
2017-11-26T09:32:08.077Z,2.10
2017-11-26T09:34:35.605Z,2.50
2017-11-26T09:37:03.421Z,2.33
2017-11-26T09:39:31.138Z,2.80
2017-11-26T09:41:58.948Z,2.90
2017-11-26T09:44:26.712Z,2.80
2017-11-26T09:46:55.516Z,2.40
2017-11-26T09:49:23.197Z,2.87
2017-11-26T09:51:51.288Z,3.65
2017-11-26T09:54:19.405Z,3.00
2017-11-26T09:56:46.968Z,2.45
2017-11-26T09:59:14.534Z,3.12
2017-11-26T10:01:43.414Z,2.53
2017-11-26T10:04:11.499Z,2.85
2017-11-26T10:06:39.239Z,2.92
2017-11-26T10:09:06.888Z,2.65
2017-11-26T10:11:35.186Z,2.78
2017-11-26T10:14:02.952Z,2.60
2017-11-26T10:16:30.719Z,3.40
2017-11-26T10:18:58.237Z,3.35
2017-11-26T10:21:25.949Z,2.25
2017-11-26T10:23:53.954Z,2.85
2017-11-26T10:26:21.669Z,3.53
2017-11-26T10:28:49.440Z,2.67
2017-11-26T10:31:17.233Z,3.05
2017-11-26T10:33:45.056Z,3.65
2017-11-26T10:36:12.927Z,3.20
2017-11-26T10:38:40.572Z,3.42
2017-11-26T10:41:08.455Z,2.60
2017-11-26T10:43:36.219Z,3.10
2017-11-26T10:46:03.879Z,2.92
2017-11-26T10:48:31.488Z,3.17
2017-11-26T10:50:59.233Z,3.08
2017-11-26T10:53:27.012Z,2.75
2017-11-26T10:55:54.733Z,2.92
2017-11-26T10:58:22.511Z,3.50
2017-11-26T11:00:50.730Z,2.95
2017-11-26T11:03:18.397Z,3.00
2017-11-26T11:05:46.197Z,3.72
2017-11-26T11:08:13.836Z,3.30
2017-11-26T11:10:41.418Z,4.65
2017-11-26T11:13:09.017Z,3.70
2017-11-26T11:15:36.944Z,2.87
2017-11-26T11:18:04.815Z,2.80
2017-11-26T11:20:32.383Z,2.37
2017-11-26T11:23:00.146Z,2.30
2017-11-26T11:25:27.695Z,2.92
2017-11-26T11:27:55.368Z,2.43
2017-11-26T11:30:23.120Z,2.60
2017-11-26T11:32:50.774Z,2.37
2017-11-26T11:35:18.645Z,2.83
2017-11-26T11:37:46.247Z,2.70
2017-11-26T11:40:14.996Z,2.37
2017-11-26T11:42:42.791Z,2.00
2017-11-26T11:45:10.672Z,2.57
2017-11-26T11:47:38.397Z,2.30
2017-11-26T11:50:06.050Z,2.23
2017-11-26T11:52:33.984Z,2.00
2017-11-26T11:55:01.575Z,1.50
2017-11-26T11:57:29.338Z,1.92
2017-11-26T11:59:57.139Z,1.85
2017-11-26T12:02:24.686Z,1.70
2017-11-26T12:04:52.267Z,2.22
2017-11-26T12:07:19.863Z,1.85
2017-11-26T12:09:47.430Z,1.92
2017-11-26T12:12:14.965Z,1.90
2017-11-26T12:14:42.731Z,1.55
2017-11-26T12:17:10.531Z,2.10
2017-11-26T12:19:38.170Z,2.10
2017-11-26T12:22:05.825Z,2.22
2017-11-26T12:24:33.393Z,2.60
2017-11-26T12:27:01.183Z,2.62
2017-11-26T12:29:29.115Z,2.10
2017-11-26T12:31:57.009Z,2.33
2017-11-26T12:34:24.645Z,1.52
2017-11-26T12:36:52.840Z,1.95
2017-11-26T12:39:20.446Z,2.37
2017-11-26T12:41:48.166Z,2.05
2017-11-26T12:44:16.750Z,1.80
2017-11-26T12:46:44.608Z,2.70
2017-11-26T12:49:12.482Z,1.77
2017-11-26T12:51:40.359Z,2.25
2017-11-26T12:54:08.216Z,1.98
2017-11-26T12:56:35.980Z,1.70
2017-11-26T12:59:03.646Z,1.75
2017-11-26T13:01:31.231Z,2.00
2017-11-26T13:03:58.964Z,2.10
2017-11-26T13:06:26.918Z,1.95
2017-11-26T13:08:54.798Z,1.77
2017-11-26T13:11:23.073Z,1.58
2017-11-26T13:13:50.940Z,1.42
2017-11-26T13:16:18.474Z,2.45
2017-11-26T13:18:46.263Z,1.65
2017-11-26T13:21:13.958Z,1.75
2017-11-26T13:23:41.507Z,1.70
2017-11-26T13:26:09.047Z,2.05
2017-11-26T13:28:37.096Z,2.42
2017-11-26T13:31:04.687Z,2.05
2017-11-26T13:33:32.436Z,2.87
2017-11-26T13:36:00.312Z,2.58
2017-11-26T13:38:28.067Z,1.90
2017-11-26T13:40:55.889Z,2.40
2017-11-26T13:43:23.800Z,1.65
2017-11-26T13:45:51.727Z,1.45
2017-11-26T13:48:19.417Z,2.05
2017-11-26T13:50:47.203Z,2.15
2017-11-26T13:53:14.843Z,1.80
2017-11-26T13:55:42.516Z,1.80
2017-11-26T13:58:10.382Z,2.28
2017-11-26T14:00:38.056Z,1.70
2017-11-26T14:03:06.214Z,2.05
2017-11-26T14:05:34.186Z,1.17
2017-11-26T14:08:01.849Z,1.45
2017-11-26T14:10:29.496Z,1.73
2017-11-26T14:12:57.467Z,1.40
2017-11-26T14:15:25.138Z,1.75
2017-11-26T14:17:52.897Z,2.22
2017-11-26T14:20:20.978Z,1.50
2017-11-26T14:22:48.605Z,2.90
2017-11-26T14:25:16.319Z,1.12
2017-11-26T14:27:44.044Z,2.80
2017-11-26T14:30:11.926Z,2.00
2017-11-26T14:32:39.474Z,1.65
2017-11-26T14:35:07.248Z,1.42
2017-11-26T14:37:34.912Z,1.80
2017-11-26T14:40:02.471Z,1.23
2017-11-26T14:42:30.211Z,2.00
2017-11-26T14:44:58.000Z,1.50
2017-11-26T14:47:25.666Z,1.90
2017-11-26T14:49:53.733Z,1.80
2017-11-26T14:52:21.698Z,1.83
2017-11-26T14:54:49.689Z,1.60
2017-11-26T14:57:17.849Z,1.83
2017-11-26T14:59:45.770Z,2.85
2017-11-26T15:02:13.589Z,2.30
2017-11-26T15:04:41.652Z,1.77
2017-11-26T15:07:09.717Z,2.85
2017-11-26T15:09:37.688Z,1.75
2017-11-26T15:12:05.768Z,2.17
2017-11-26T15:14:33.632Z,1.60
2017-11-26T15:17:01.567Z,2.20
2017-11-26T15:19:29.838Z,2.00
2017-11-26T15:21:57.835Z,3.35
2017-11-26T15:24:25.598Z,2.45
2017-11-26T15:26:53.268Z,3.10
2017-11-26T15:29:20.819Z,1.90
2017-11-26T15:31:48.379Z,2.55
2017-11-26T15:34:17.269Z,2.03
2017-11-26T15:36:44.850Z,2.80
2017-11-26T15:39:12.392Z,3.00
2017-11-26T15:41:40.063Z,2.53
2017-11-26T15:44:07.651Z,2.83
2017-11-26T15:46:35.168Z,2.90
2017-11-26T15:49:02.869Z,2.78
2017-11-26T15:51:30.390Z,2.08
2017-11-26T15:53:57.939Z,3.12
2017-11-26T15:56:25.709Z,4.07
2017-11-26T15:58:53.271Z,2.58
2017-11-26T16:01:20.955Z,3.22
2017-11-26T16:03:48.640Z,2.92
2017-11-26T16:06:16.199Z,3.00
2017-11-26T16:08:43.715Z,2.58
2017-11-26T16:11:11.302Z,3.00
2017-11-26T16:13:39.029Z,3.03
2017-11-26T16:16:06.796Z,3.05
2017-11-26T16:18:34.413Z,3.75
2017-11-26T16:21:01.941Z,2.72
2017-11-26T16:23:29.657Z,3.12
2017-11-26T16:25:57.238Z,3.35
2017-11-26T16:28:24.769Z,4.15
2017-11-26T16:30:52.408Z,4.75
2017-11-26T16:33:20.243Z,4.05
2017-11-26T16:35:47.882Z,3.60
2017-11-26T16:38:15.633Z,2.55
2017-11-26T16:40:43.497Z,3.50
2017-11-26T16:43:11.125Z,3.42
2017-11-26T16:45:38.791Z,3.22
2017-11-26T16:48:07.030Z,3.40
2017-11-26T16:50:34.605Z,9.70
2017-11-26T16:53:02.228Z,4.50
2017-11-26T16:55:29.977Z,4.00
2017-11-26T16:57:57.553Z,3.50
2017-11-26T17:00:25.162Z,4.60
2017-11-26T17:02:52.774Z,4.30
2017-11-26T17:05:20.312Z,4.70
2017-11-26T17:07:47.949Z,4.40
2017-11-26T17:10:15.639Z,5.87
2017-11-26T17:12:43.399Z,4.80
2017-11-26T17:15:11.186Z,5.15
2017-11-26T17:17:40.065Z,5.57
2017-11-26T17:20:07.747Z,5.87
2017-11-26T17:22:34.652Z,5.78
2017-11-26T17:25:02.284Z,5.80
2017-11-26T17:27:30.779Z,5.43
2017-11-26T17:29:58.338Z,5.05
2017-11-26T17:32:26.349Z,4.30
2017-11-26T17:34:54.117Z,3.20
2017-11-26T17:37:21.884Z,3.20
2017-11-26T17:39:49.641Z,3.70
2017-11-26T17:42:17.305Z,4.37
2017-11-26T17:44:45.168Z,3.92
2017-11-26T17:47:14.196Z,3.85
2017-11-26T17:49:41.924Z,4.68
2017-11-26T17:52:09.689Z,3.97
2017-11-26T17:54:37.877Z,4.75
2017-11-26T17:57:05.628Z,4.65
2017-11-26T17:59:33.421Z,5.25
2017-11-26T18:02:01.299Z,3.40
2017-11-26T18:04:29.137Z,4.40
2017-11-26T18:06:57.295Z,3.70
2017-11-26T18:09:25.161Z,3.55
2017-11-26T18:11:52.824Z,5.15
2017-11-26T18:14:20.792Z,4.00
2017-11-26T18:16:48.660Z,7.28
2017-11-26T18:19:16.789Z,4.47
2017-11-26T18:21:44.494Z,5.62
2017-11-26T18:24:12.579Z,4.05
2017-11-26T18:26:40.129Z,4.00
2017-11-26T18:29:07.885Z,3.92
2017-11-26T18:31:35.776Z,5.00
2017-11-26T18:34:03.379Z,4.37
2017-11-26T18:36:30.981Z,3.78
2017-11-26T18:38:58.942Z,3.72
2017-11-26T18:41:26.707Z,4.53
2017-11-26T18:43:54.473Z,3.42
2017-11-26T18:46:22.211Z,4.40
2017-11-26T18:48:49.736Z,4.37
2017-11-26T18:51:17.261Z,4.15
2017-11-26T18:53:45.280Z,4.35
2017-11-26T18:56:13.040Z,4.40
2017-11-26T18:58:40.851Z,4.40
2017-11-26T19:01:08.672Z,4.32
2017-11-26T19:03:36.384Z,4.22
2017-11-26T19:06:04.114Z,3.00
2017-11-26T19:08:32.097Z,4.20
2017-11-26T19:11:00.077Z,3.85
2017-11-26T19:13:27.843Z,4.00
2017-11-26T19:15:55.743Z,3.85
2017-11-26T19:18:23.369Z,3.35
2017-11-26T19:20:51.247Z,3.95
2017-11-26T19:23:19.825Z,4.12
2017-11-26T19:25:47.686Z,4.55
2017-11-26T19:28:15.455Z,3.72
2017-11-26T19:30:43.154Z,4.12
2017-11-26T19:33:10.976Z,3.70
2017-11-26T19:35:38.756Z,3.55
2017-11-26T19:38:06.478Z,3.47
2017-11-26T19:40:34.266Z,6.65
2017-11-26T19:43:02.960Z,3.87
2017-11-26T19:45:30.716Z,4.05
2017-11-26T19:47:58.504Z,3.67
2017-11-26T19:50:26.449Z,3.60
2017-11-26T19:52:54.418Z,3.92
2017-11-26T19:55:22.082Z,3.15
2017-11-26T19:57:49.735Z,3.65
2017-11-26T20:00:17.930Z,3.65
2017-11-26T20:02:46.060Z,3.00
2017-11-26T20:05:13.755Z,2.75
2017-11-26T20:07:42.496Z,3.47
2017-11-26T20:10:10.363Z,3.60
2017-11-26T20:12:38.784Z,3.72
2017-11-26T20:15:07.272Z,3.83
2017-11-26T20:17:36.257Z,3.60
2017-11-26T20:20:04.224Z,4.55
2017-11-26T20:22:33.832Z,4.90
2017-11-26T20:25:01.542Z,4.55
2017-11-26T20:27:29.564Z,4.82
2017-11-26T20:29:57.493Z,3.90
2017-11-26T20:32:25.206Z,3.50
2017-11-26T20:34:52.972Z,3.42
2017-11-26T20:37:21.131Z,3.80
2017-11-26T20:39:48.908Z,5.55
2017-11-26T20:42:16.762Z,4.47
2017-11-26T20:44:44.637Z,5.18
2017-11-26T20:47:13.329Z,4.65
2017-11-26T20:49:44.049Z,4.15
2017-11-26T20:52:12.028Z,3.12
2017-11-26T20:54:40.079Z,5.60
2017-11-26T20:57:07.854Z,6.00
2017-11-26T20:59:36.126Z,5.05
2017-11-26T21:02:04.104Z,4.65
2017-11-26T21:04:31.860Z,4.80
2017-11-26T21:06:59.730Z,4.65
2017-11-26T21:09:27.555Z,4.00
2017-11-26T21:11:55.160Z,4.75
2017-11-26T21:14:22.740Z,3.55
2017-11-26T21:16:50.281Z,4.37
2017-11-26T21:19:17.933Z,4.25
2017-11-26T21:21:45.692Z,4.30
2017-11-26T21:24:13.436Z,4.28
2017-11-26T21:26:41.120Z,4.07
2017-11-26T21:29:08.986Z,5.60
2017-11-26T21:31:36.579Z,4.50
2017-11-26T21:34:04.123Z,5.97
2017-11-26T21:36:32.076Z,4.05
2017-11-26T21:38:59.642Z,4.55
2017-11-26T21:41:27.192Z,4.15
2017-11-26T21:43:55.366Z,4.00
2017-11-26T21:46:22.932Z,5.05
2017-11-26T21:48:50.585Z,4.40
2017-11-26T21:51:18.410Z,4.22
2017-11-26T21:53:46.216Z,4.70
2017-11-26T21:56:13.776Z,4.53
2017-11-26T21:58:41.340Z,4.65
2017-11-26T22:01:08.996Z,4.75
2017-11-26T22:03:36.658Z,4.32
2017-11-26T22:06:04.230Z,5.05
2017-11-26T22:08:31.792Z,4.68
2017-11-26T22:10:59.395Z,4.12
2017-11-26T22:13:27.202Z,4.65
2017-11-26T22:15:54.717Z,4.35
2017-11-26T22:18:22.245Z,4.40
2017-11-26T22:20:50.083Z,3.30
2017-11-26T22:23:17.636Z,4.05
2017-11-26T22:25:45.149Z,4.12
2017-11-26T22:28:12.866Z,4.55
2017-11-26T22:30:40.534Z,4.53
2017-11-26T22:33:08.162Z,4.30
2017-11-26T22:35:35.905Z,5.50
2017-11-26T22:38:03.628Z,3.80
2017-11-26T22:40:34.040Z,4.15
2017-11-26T22:43:01.904Z,4.35
2017-11-26T22:45:29.459Z,4.50
2017-11-26T22:47:57.023Z,5.12
2017-11-26T22:50:24.799Z,4.82
2017-11-26T22:52:52.448Z,3.95
2017-11-26T22:55:20.293Z,3.80
2017-11-26T22:57:48.578Z,3.67
2017-11-26T23:00:16.221Z,2.90
2017-11-26T23:02:43.918Z,3.50
2017-11-26T23:05:11.656Z,3.35
2017-11-26T23:07:39.647Z,4.30
2017-11-26T23:10:07.223Z,3.78
2017-11-26T23:12:35.320Z,3.87
2017-11-26T23:15:03.552Z,4.10
2017-11-26T23:17:31.214Z,2.78
2017-11-26T23:19:59.286Z,2.83
2017-11-26T23:22:26.816Z,3.53
2017-11-26T23:24:54.361Z,3.50
2017-11-26T23:27:22.001Z,4.30
2017-11-26T23:29:50.160Z,2.80
2017-11-26T23:32:18.834Z,3.53
2017-11-26T23:34:46.690Z,4.20
2017-11-26T23:37:14.249Z,3.80
2017-11-26T23:39:42.338Z,3.05
2017-11-26T23:42:13.751Z,3.55
2017-11-26T23:44:42.207Z,3.95
2017-11-26T23:47:11.960Z,3.78
2017-11-26T23:49:43.514Z,4.95
2017-11-26T23:52:11.270Z,4.22
2017-11-26T23:54:39.217Z,4.22
2017-11-26T23:57:07.734Z,3.83
2017-11-26T23:59:35.417Z,4.87
